createdAt,value
2023-04-23T00:02:09.393Z,145.47
2023-04-23T00:04:39.176Z,144.97
2023-04-23T00:07:09.131Z,144.33
2023-04-23T00:09:40.110Z,143.97
2023-04-23T00:12:09.302Z,145.03
2023-04-23T00:14:37.860Z,145.10
2023-04-23T00:17:06.236Z,143.30
2023-04-23T00:19:34.327Z,137.60
2023-04-23T00:22:03.107Z,139.70
2023-04-23T00:24:32.021Z,138.63
2023-04-23T00:27:01.574Z,140.97
2023-04-23T00:29:29.692Z,141.87
2023-04-23T00:31:57.910Z,141.47
2023-04-23T00:34:26.752Z,138.43
2023-04-23T00:36:54.916Z,134.70
2023-04-23T00:39:23.104Z,143.20
2023-04-23T00:41:51.256Z,142.60
2023-04-23T00:44:20.866Z,142.87
2023-04-23T00:46:49.433Z,140.90
2023-04-23T00:49:18.625Z,142.83
2023-04-23T00:51:46.764Z,144.80
2023-04-23T00:54:15.340Z,142.00
2023-04-23T00:56:43.409Z,142.37
2023-04-23T00:59:11.549Z,140.93
2023-04-23T01:01:41.899Z,137.90
2023-04-23T01:04:10.809Z,140.83
2023-04-23T01:06:38.972Z,133.47
2023-04-23T01:09:07.529Z,134.83
2023-04-23T01:11:35.704Z,133.63
2023-04-23T01:14:04.309Z,132.47
2023-04-23T01:16:33.769Z,134.50
2023-04-23T01:19:03.438Z,132.17
2023-04-23T01:21:32.444Z,132.50
2023-04-23T01:24:02.396Z,131.23
2023-04-23T01:26:30.642Z,133.00
2023-04-23T01:28:59.168Z,131.20
2023-04-23T01:31:28.319Z,131.97
2023-04-23T01:33:57.168Z,130.43
2023-04-23T01:36:27.220Z,128.50
2023-04-23T01:38:55.511Z,134.10
2023-04-23T01:41:25.163Z,132.60
2023-04-23T01:43:53.592Z,131.73
2023-04-23T01:46:22.162Z,135.90
2023-04-23T01:48:50.440Z,129.97
2023-04-23T01:51:18.722Z,131.60
2023-04-23T01:53:46.843Z,133.07
2023-04-23T01:56:17.391Z,133.53
2023-04-23T01:58:47.000Z,134.77
2023-04-23T02:01:15.094Z,131.77
2023-04-23T02:03:43.447Z,131.50
2023-04-23T02:06:11.938Z,131.60
2023-04-23T02:08:41.118Z,130.47
2023-04-23T02:11:09.308Z,135.93
2023-04-23T02:13:37.447Z,134.80
2023-04-23T02:16:07.745Z,126.30
2023-04-23T02:18:35.932Z,124.50
2023-04-23T02:21:04.646Z,128.13
2023-04-23T02:23:32.785Z,128.23
2023-04-23T02:26:00.919Z,127.77
2023-04-23T02:28:29.001Z,127.27
2023-04-23T02:30:57.129Z,130.10
2023-04-23T02:33:26.812Z,127.90
2023-04-23T02:35:55.035Z,128.27
2023-04-23T02:38:23.208Z,132.60
2023-04-23T02:40:51.386Z,130.27
2023-04-23T02:43:19.471Z,134.67
2023-04-23T02:45:47.605Z,129.17
2023-04-23T02:48:15.832Z,132.63
2023-04-23T02:50:46.782Z,125.57
2023-04-23T02:53:14.966Z,123.90
2023-04-23T02:55:43.196Z,132.70
2023-04-23T02:58:11.883Z,136.57
2023-04-23T03:00:40.162Z,135.17
2023-04-23T03:03:09.483Z,131.67
2023-04-23T03:05:39.571Z,124.77
2023-04-23T03:08:09.120Z,130.40
2023-04-23T03:10:37.224Z,128.70
2023-04-23T03:13:05.513Z,125.63
2023-04-23T03:15:33.685Z,123.23
2023-04-23T03:18:04.488Z,125.70
2023-04-23T03:20:32.678Z,124.83
2023-04-23T03:23:00.852Z,128.23
2023-04-23T03:25:30.491Z,126.67
2023-04-23T03:27:58.604Z,127.60
2023-04-23T03:30:27.019Z,126.70
2023-04-23T03:32:56.891Z,131.73
2023-04-23T03:35:25.887Z,132.83
2023-04-23T03:37:53.976Z,130.13
2023-04-23T03:40:22.500Z,133.23
2023-04-23T03:42:51.989Z,131.33
2023-04-23T03:45:20.388Z,135.80
2023-04-23T03:47:48.593Z,133.53
2023-04-23T03:50:17.503Z,132.90
2023-04-23T03:52:45.829Z,130.90
2023-04-23T03:55:13.988Z,133.27
2023-04-23T03:57:42.494Z,136.50
2023-04-23T04:00:13.286Z,135.67
2023-04-23T04:02:42.004Z,131.13
2023-04-23T04:05:11.793Z,130.17
2023-04-23T04:07:41.213Z,129.63
2023-04-23T04:10:09.830Z,134.03
2023-04-23T04:12:38.071Z,130.33
2023-04-23T04:15:07.048Z,127.53
2023-04-23T04:17:36.512Z,136.90
2023-04-23T04:20:04.941Z,139.93
2023-04-23T04:22:33.064Z,139.27
2023-04-23T04:25:01.305Z,136.33
2023-04-23T04:27:29.473Z,141.50
2023-04-23T04:29:57.710Z,139.37
2023-04-23T04:32:26.832Z,147.80
2023-04-23T04:34:56.368Z,147.00
2023-04-23T04:37:25.181Z,153.67
2023-04-23T04:39:54.536Z,147.93
2023-04-23T04:42:22.903Z,144.80
2023-04-23T04:44:51.337Z,143.57
2023-04-23T04:47:20.007Z,140.17
2023-04-23T04:49:48.822Z,136.40
2023-04-23T04:52:18.484Z,141.53
2023-04-23T04:54:46.703Z,142.07
2023-04-23T04:57:14.770Z,149.73
2023-04-23T04:59:43.144Z,145.00
2023-04-23T05:02:11.585Z,142.30
2023-04-23T05:04:40.435Z,141.87
2023-04-23T05:07:08.758Z,142.00
2023-04-23T05:09:38.260Z,141.27
2023-04-23T05:12:07.385Z,142.73
2023-04-23T05:14:35.427Z,140.87
2023-04-23T05:17:03.703Z,141.90
2023-04-23T05:19:32.395Z,139.77
2023-04-23T05:22:02.803Z,139.50
2023-04-23T05:24:30.969Z,144.00
2023-04-23T05:27:01.379Z,143.53
2023-04-23T05:29:29.479Z,143.43
2023-04-23T05:31:57.820Z,140.33
2023-04-23T05:34:26.210Z,137.20
2023-04-23T05:36:54.376Z,144.13
2023-04-23T05:39:22.521Z,145.43
2023-04-23T05:41:50.724Z,151.80
2023-04-23T05:44:20.653Z,154.93
2023-04-23T05:46:48.740Z,155.37
2023-04-23T05:49:16.970Z,152.77
2023-04-23T05:51:46.601Z,149.03
2023-04-23T05:54:14.880Z,155.87
2023-04-23T05:56:43.141Z,153.80
2023-04-23T05:59:11.513Z,153.03
2023-04-23T06:01:41.591Z,153.20
2023-04-23T06:04:09.985Z,148.73
2023-04-23T06:06:38.394Z,150.83
2023-04-23T06:09:06.967Z,145.50
2023-04-23T06:11:36.064Z,147.53
2023-04-23T06:14:06.524Z,151.27
2023-04-23T06:16:34.696Z,151.63
2023-04-23T06:19:04.777Z,148.60
2023-04-23T06:21:33.084Z,146.47
2023-04-23T06:24:01.285Z,137.80
2023-04-23T06:26:30.339Z,133.33
2023-04-23T06:28:59.365Z,148.67
2023-04-23T06:31:27.712Z,136.17
2023-04-23T06:33:56.002Z,129.07
2023-04-23T06:36:25.495Z,128.87
2023-04-23T06:38:53.604Z,125.30
2023-04-23T06:41:21.926Z,122.60
2023-04-23T06:43:50.177Z,119.10
2023-04-23T06:46:19.269Z,119.90
2023-04-23T06:48:47.509Z,116.70
2023-04-23T06:51:17.135Z,118.00
2023-04-23T06:53:46.756Z,114.10
2023-04-23T06:56:15.433Z,112.77
2023-04-23T06:58:43.710Z,110.97
2023-04-23T07:01:12.089Z,107.10
2023-04-23T07:03:45.056Z,101.40
2023-04-23T07:06:14.582Z,98.30
2023-04-23T07:08:43.073Z,95.00
2023-04-23T07:11:12.771Z,98.20
2023-04-23T07:13:41.275Z,96.63
2023-04-23T07:16:09.947Z,96.60
2023-04-23T07:18:38.401Z,89.30
2023-04-23T07:21:06.630Z,96.60
2023-04-23T07:23:35.066Z,92.67
2023-04-23T07:26:03.834Z,84.33
2023-04-23T07:28:33.492Z,77.27
2023-04-23T07:31:01.645Z,76.90
2023-04-23T07:33:30.935Z,73.37
2023-04-23T07:35:59.411Z,62.33
2023-04-23T07:38:27.550Z,61.83
2023-04-23T07:40:56.259Z,61.83
2023-04-23T07:43:25.155Z,57.30
2023-04-23T07:45:54.719Z,54.10
2023-04-23T07:48:23.035Z,43.87
2023-04-23T07:50:51.273Z,46.27
2023-04-23T07:53:19.648Z,39.57
2023-04-23T07:55:47.791Z,37.97
2023-04-23T07:58:16.086Z,38.43
2023-04-23T08:00:44.207Z,36.83
2023-04-23T08:03:14.219Z,34.90
2023-04-23T08:05:43.105Z,37.63
2023-04-23T08:08:13.860Z,32.10
2023-04-23T08:10:42.340Z,34.57
2023-04-23T08:13:11.176Z,31.80
2023-04-23T08:15:39.423Z,29.67
2023-04-23T08:18:07.874Z,28.80
2023-04-23T08:20:37.490Z,28.53
2023-04-23T08:23:05.726Z,27.50
2023-04-23T08:25:34.868Z,31.50
2023-04-23T08:28:03.927Z,27.17
2023-04-23T08:30:32.185Z,27.97
2023-04-23T08:33:00.475Z,26.07
2023-04-23T08:35:28.780Z,27.00
2023-04-23T08:37:58.503Z,28.13
2023-04-23T08:40:30.836Z,28.60
2023-04-23T08:43:02.524Z,26.53
2023-04-23T08:45:31.730Z,25.30
2023-04-23T08:48:02.671Z,25.03
2023-04-23T08:50:32.057Z,24.17
2023-04-23T08:53:02.992Z,25.27
2023-04-23T08:55:31.417Z,24.53
2023-04-23T08:57:59.988Z,25.40
2023-04-23T09:00:28.300Z,25.00
2023-04-23T09:02:57.745Z,23.57
2023-04-23T09:05:27.999Z,22.43
2023-04-23T09:07:56.767Z,23.10
2023-04-23T09:10:26.461Z,22.30
2023-04-23T09:12:54.966Z,21.90
2023-04-23T09:15:23.259Z,22.00
2023-04-23T09:17:51.577Z,21.90
2023-04-23T09:20:19.991Z,21.93
2023-04-23T09:22:49.581Z,20.57
2023-04-23T09:25:19.698Z,21.80
2023-04-23T09:27:50.444Z,20.87
2023-04-23T09:30:20.025Z,20.17
2023-04-23T09:32:49.584Z,20.40
2023-04-23T09:35:19.985Z,20.63
2023-04-23T09:37:52.471Z,20.63
2023-04-23T09:40:23.485Z,20.10
2023-04-23T09:42:54.722Z,20.60
2023-04-23T09:45:25.175Z,20.70
2023-04-23T09:47:55.484Z,19.97
2023-04-23T09:50:35.278Z,20.33
2023-04-23T09:53:05.014Z,20.30
2023-04-23T09:55:37.410Z,20.20
2023-04-23T09:58:08.181Z,19.70
2023-04-23T10:00:37.876Z,21.67
2023-04-23T10:03:08.128Z,19.27
2023-04-23T10:05:59.558Z,19.43
2023-04-23T10:08:29.837Z,19.50
2023-04-23T10:11:09.513Z,19.40
2023-04-23T10:13:43.825Z,19.43
2023-04-23T10:16:22.328Z,19.57
2023-04-23T10:18:55.479Z,19.60
2023-04-23T10:21:39.477Z,19.33
2023-04-23T10:24:15.850Z,19.97
2023-04-23T10:26:45.565Z,18.63
2023-04-23T10:29:17.325Z,19.30
2023-04-23T10:31:47.755Z,19.77
2023-04-23T10:34:17.185Z,20.20
2023-04-23T10:36:45.493Z,19.27
2023-04-23T10:41:45.578Z,19.00
2023-04-23T10:44:17.280Z,18.80
2023-04-23T10:46:53.657Z,20.10
2023-04-23T10:49:24.515Z,19.90
2023-04-23T10:52:18.862Z,20.93
2023-04-23T10:54:50.401Z,21.40
2023-04-23T10:57:19.297Z,20.13
2023-04-23T10:59:54.896Z,20.17
2023-04-23T11:02:26.061Z,19.43
2023-04-23T11:04:57.965Z,20.33
2023-04-23T11:07:31.043Z,19.90
2023-04-23T11:10:01.270Z,20.50
2023-04-23T11:12:33.851Z,19.53
2023-04-23T11:15:12.357Z,20.40
2023-04-23T11:18:03.360Z,19.77
2023-04-23T11:20:31.619Z,19.80
2023-04-23T11:22:59.823Z,21.03
2023-04-23T11:25:30.519Z,19.90
2023-04-23T11:27:59.569Z,19.87
2023-04-23T11:30:30.751Z,20.20
2023-04-23T11:33:01.364Z,20.27
2023-04-23T11:35:33.641Z,20.07
2023-04-23T11:38:01.816Z,20.10
2023-04-23T11:40:31.073Z,20.00
2023-04-23T11:42:59.445Z,19.53
2023-04-23T11:45:30.670Z,19.40
2023-04-23T11:48:01.529Z,19.60
2023-04-23T11:50:33.009Z,20.10
2023-04-23T11:53:06.367Z,19.87
2023-04-23T11:55:34.453Z,19.90
2023-04-23T11:58:02.672Z,19.70
2023-04-23T12:00:32.191Z,19.90
2023-04-23T12:03:01.692Z,19.20
2023-04-23T12:05:32.832Z,19.10
2023-04-23T12:08:11.219Z,20.30
2023-04-23T12:10:47.565Z,19.33
2023-04-23T12:13:16.858Z,27.73
2023-04-23T12:15:51.653Z,19.10
2023-04-23T12:18:20.489Z,19.30
2023-04-23T12:20:48.547Z,18.93
2023-04-23T12:23:16.927Z,19.30
2023-04-23T12:25:45.069Z,19.37
2023-04-23T12:28:13.286Z,20.30
2023-04-23T12:30:45.555Z,20.00
2023-04-23T12:33:15.644Z,19.40
2023-04-23T12:35:44.955Z,19.90
2023-04-23T12:38:23.765Z,19.67
2023-04-23T12:40:52.469Z,20.83
2023-04-23T12:43:20.680Z,20.03
2023-04-23T12:45:49.226Z,19.43
2023-04-23T12:48:19.089Z,19.80
2023-04-23T12:50:51.169Z,19.33
2023-04-23T12:53:19.937Z,19.77
2023-04-23T12:55:50.205Z,19.60
2023-04-23T12:58:18.366Z,19.77
2023-04-23T13:00:46.566Z,18.90
2023-04-23T13:03:15.761Z,19.87
2023-04-23T13:05:45.436Z,19.40
2023-04-23T13:08:13.628Z,19.70
2023-04-23T13:10:41.902Z,19.60
2023-04-23T13:13:10.015Z,19.00
2023-04-23T13:15:38.178Z,18.90
2023-04-23T13:18:06.953Z,18.73
2023-04-23T13:20:35.176Z,18.90
2023-04-23T13:23:04.824Z,18.97
2023-04-23T13:25:33.081Z,19.70
2023-04-23T13:28:01.332Z,19.00
2023-04-23T13:30:29.481Z,19.03
2023-04-23T13:32:59.266Z,18.83
2023-04-23T13:35:27.449Z,19.07
2023-04-23T13:37:56.247Z,19.07
2023-04-23T13:40:25.727Z,27.13
2023-04-23T13:42:55.049Z,25.23
2023-04-23T13:45:23.193Z,24.23
2023-04-23T13:47:51.409Z,24.33
2023-04-23T13:50:19.684Z,25.17
2023-04-23T13:52:48.106Z,24.77
2023-04-23T13:55:16.857Z,24.87
2023-04-23T13:57:46.498Z,26.00
2023-04-23T14:00:15.796Z,25.67
2023-04-23T14:02:43.927Z,26.20
2023-04-23T14:05:12.257Z,19.63
2023-04-23T14:07:43.786Z,19.47
2023-04-23T14:10:12.512Z,19.47
2023-04-23T14:12:40.846Z,19.03
2023-04-23T14:15:11.176Z,19.37
2023-04-23T14:17:40.681Z,19.30
2023-04-23T14:20:09.534Z,19.30
2023-04-23T14:22:37.928Z,19.60
2023-04-23T14:25:10.555Z,19.10
2023-04-23T14:27:42.476Z,19.40
2023-04-23T14:30:17.424Z,19.53
2023-04-23T14:32:49.267Z,19.70
2023-04-23T14:35:22.727Z,19.47
2023-04-23T14:37:57.691Z,19.80
2023-04-23T14:40:25.847Z,19.60
2023-04-23T14:42:56.994Z,20.40
2023-04-23T14:45:31.306Z,20.70
2023-04-23T14:47:59.897Z,20.60
2023-04-23T14:50:28.886Z,20.00
2023-04-23T14:52:58.825Z,20.47
2023-04-23T14:55:27.107Z,20.47
2023-04-23T14:57:55.215Z,22.00
2023-04-23T15:00:23.531Z,22.67
2023-04-23T15:02:53.352Z,23.53
2023-04-23T15:05:21.583Z,25.77
2023-04-23T15:07:51.477Z,27.20
2023-04-23T15:10:21.765Z,27.47
2023-04-23T15:12:56.835Z,29.17
2023-04-23T15:15:41.208Z,34.57
2023-04-23T15:18:15.558Z,37.10
2023-04-23T15:20:44.333Z,41.50
2023-04-23T15:23:12.432Z,42.93
2023-04-23T15:25:40.981Z,44.80
2023-04-23T15:28:09.438Z,47.03
2023-04-23T15:30:37.472Z,43.23
2023-04-23T15:33:05.644Z,39.47
2023-04-23T15:35:35.116Z,39.83
2023-04-23T15:38:03.331Z,38.80
2023-04-23T15:40:31.477Z,37.27
2023-04-23T15:43:00.192Z,42.67
2023-04-23T15:45:28.453Z,40.47
2023-04-23T15:47:56.905Z,41.47
2023-04-23T15:50:26.729Z,42.53
2023-04-23T15:52:58.334Z,45.23
2023-04-23T15:55:26.618Z,45.77
2023-04-23T15:57:54.680Z,43.40
2023-04-23T16:00:23.396Z,44.43
2023-04-23T16:02:51.703Z,47.73
2023-04-23T16:05:20.251Z,50.17
2023-04-23T16:07:48.426Z,53.23
2023-04-23T16:10:17.991Z,50.87
2023-04-23T16:12:47.873Z,49.50
2023-04-23T16:15:16.089Z,50.33
2023-04-23T16:17:44.266Z,46.33
2023-04-23T16:20:13.132Z,50.50
2023-04-23T16:22:41.265Z,47.90
2023-04-23T16:25:10.429Z,53.57
2023-04-23T16:27:40.350Z,59.40
2023-04-23T16:30:09.839Z,60.50
2023-04-23T16:32:37.946Z,62.50
2023-04-23T16:35:06.660Z,58.83
2023-04-23T16:37:34.749Z,51.90
2023-04-23T16:40:03.001Z,57.40
2023-04-23T16:42:31.095Z,60.70
2023-04-23T16:45:00.606Z,61.23
2023-04-23T16:47:28.812Z,62.40
2023-04-23T16:49:56.952Z,65.43
2023-04-23T16:52:25.143Z,66.03
2023-04-23T16:54:53.240Z,64.27
2023-04-23T16:57:21.633Z,63.13
2023-04-23T16:59:49.763Z,61.13
2023-04-23T17:02:19.348Z,63.80
2023-04-23T17:04:47.985Z,62.40
2023-04-23T17:07:17.069Z,64.40
2023-04-23T17:09:45.279Z,63.50
2023-04-23T17:12:13.610Z,67.83
2023-04-23T17:14:41.807Z,68.40
2023-04-23T17:17:10.465Z,68.47
2023-04-23T17:19:39.986Z,67.60
2023-04-23T17:22:10.699Z,72.50
2023-04-23T17:24:39.374Z,66.03
2023-04-23T17:27:07.557Z,67.43
2023-04-23T17:29:35.917Z,69.83
2023-04-23T17:32:04.416Z,66.57
2023-04-23T17:34:32.634Z,65.63
2023-04-23T17:37:02.141Z,67.73
2023-04-23T17:39:30.277Z,68.97
2023-04-23T17:41:58.575Z,74.40
2023-04-23T17:44:26.808Z,68.87
2023-04-23T17:46:55.168Z,68.87
2023-04-23T17:49:23.371Z,76.67
2023-04-23T17:51:51.427Z,74.43
2023-04-23T17:54:21.382Z,76.67
2023-04-23T17:56:49.593Z,76.77
2023-04-23T17:59:17.734Z,78.97
2023-04-23T18:01:45.941Z,77.00
2023-04-23T18:04:17.370Z,83.13
2023-04-23T18:06:46.546Z,80.93
2023-04-23T18:09:15.156Z,83.13
2023-04-23T18:11:45.790Z,84.17
2023-04-23T18:14:13.880Z,83.47
2023-04-23T18:16:41.994Z,87.80
2023-04-23T18:19:10.144Z,81.97
2023-04-23T18:21:38.913Z,80.67
2023-04-23T18:24:07.539Z,80.27
2023-04-23T18:26:36.016Z,81.77
2023-04-23T18:29:05.705Z,84.27
2023-04-23T18:31:33.901Z,85.33
2023-04-23T18:34:03.263Z,85.03
2023-04-23T18:36:33.033Z,86.73
2023-04-23T18:39:01.436Z,86.97
2023-04-23T18:41:30.090Z,91.13
2023-04-23T18:44:00.115Z,90.80
2023-04-23T18:46:31.365Z,82.63
2023-04-23T18:49:01.722Z,82.13
2023-04-23T18:51:34.047Z,81.60
2023-04-23T18:54:02.742Z,79.97
2023-04-23T18:56:31.650Z,80.27
2023-04-23T18:58:59.886Z,86.03
2023-04-23T19:01:29.411Z,84.97
2023-04-23T19:03:57.966Z,85.20
2023-04-23T19:06:26.643Z,84.63
2023-04-23T19:08:54.897Z,83.77
2023-04-23T19:11:23.131Z,81.30
2023-04-23T19:13:51.314Z,82.03
2023-04-23T19:16:19.426Z,79.10
2023-04-23T19:18:49.004Z,81.50
2023-04-23T19:21:17.151Z,79.60
2023-04-23T19:23:45.240Z,79.97
2023-04-23T19:26:13.518Z,79.33
2023-04-23T19:28:41.774Z,78.70
2023-04-23T19:31:09.992Z,78.87
2023-04-23T19:33:38.207Z,76.80
2023-04-23T19:36:07.833Z,79.80
2023-04-23T19:38:35.923Z,83.20
2023-04-23T19:41:04.218Z,85.03
2023-04-23T19:43:32.440Z,86.27
2023-04-23T19:46:00.597Z,83.17
2023-04-23T19:48:28.677Z,88.17
2023-04-23T19:50:56.794Z,76.97
2023-04-23T19:53:26.909Z,78.80
2023-04-23T19:55:55.078Z,78.77
2023-04-23T19:58:23.231Z,77.00
2023-04-23T20:00:52.224Z,79.63
2023-04-23T20:03:21.148Z,74.17
2023-04-23T20:05:49.806Z,75.03
2023-04-23T20:08:26.118Z,76.50
2023-04-23T20:10:56.115Z,74.27
2023-04-23T20:13:25.089Z,74.00
2023-04-23T20:15:55.057Z,70.07
2023-04-23T20:18:25.497Z,67.20
2023-04-23T20:20:53.918Z,70.93
2023-04-23T20:23:21.976Z,68.17
2023-04-23T20:25:50.050Z,69.10
2023-04-23T20:28:19.592Z,71.63
2023-04-23T20:30:47.742Z,75.20
2023-04-23T20:33:18.682Z,72.60
2023-04-23T20:35:47.715Z,75.90
2023-04-23T20:38:19.170Z,79.57
2023-04-23T20:40:47.355Z,79.30
2023-04-23T20:43:15.540Z,77.70
2023-04-23T20:45:46.613Z,79.00
2023-04-23T20:48:15.393Z,78.87
2023-04-23T20:50:43.479Z,80.80
2023-04-23T20:53:11.569Z,84.53
2023-04-23T20:55:39.705Z,84.90
2023-04-23T20:58:07.845Z,83.10
2023-04-23T21:00:36.920Z,77.47
2023-04-23T21:03:06.913Z,78.10
2023-04-23T21:05:35.086Z,81.87
2023-04-23T21:08:03.422Z,82.60
2023-04-23T21:10:31.711Z,81.70
2023-04-23T21:13:00.071Z,82.43
2023-04-23T21:15:29.659Z,82.30
2023-04-23T21:17:57.846Z,85.53
2023-04-23T21:20:27.414Z,86.67
2023-04-23T21:22:55.805Z,90.17
2023-04-23T21:25:23.978Z,93.90
2023-04-23T21:27:52.046Z,92.27
2023-04-23T21:30:25.885Z,86.47
2023-04-23T21:32:54.358Z,91.20
2023-04-23T21:35:22.553Z,92.67
2023-04-23T21:37:52.012Z,96.53
2023-04-23T21:40:20.275Z,101.07
2023-04-23T21:42:48.453Z,96.87
2023-04-23T21:45:17.389Z,99.33
2023-04-23T21:47:45.700Z,103.03
2023-04-23T21:50:13.888Z,102.73
2023-04-23T21:52:43.971Z,103.47
2023-04-23T21:55:13.796Z,104.60
2023-04-23T21:57:41.990Z,104.77
2023-04-23T22:00:13.954Z,105.80
2023-04-23T22:02:46.335Z,107.47
2023-04-23T22:05:17.010Z,107.70
2023-04-23T22:07:45.309Z,110.43
2023-04-23T22:10:16.475Z,112.23
2023-04-23T22:12:45.678Z,109.57
2023-04-23T22:15:16.068Z,108.63
2023-04-23T22:17:46.318Z,109.70
2023-04-23T22:20:15.832Z,112.77
2023-04-23T22:22:44.472Z,102.53
2023-04-23T22:25:14.059Z,100.50
2023-04-23T22:27:42.654Z,96.43
2023-04-23T22:30:12.066Z,96.50
2023-04-23T22:32:41.335Z,92.60
2023-04-23T22:35:10.387Z,87.13
2023-04-23T22:37:38.748Z,89.80
2023-04-23T22:40:09.638Z,87.70
2023-04-23T22:42:39.475Z,87.57
2023-04-23T22:45:08.569Z,87.73
2023-04-23T22:47:36.653Z,88.73
2023-04-23T22:50:05.610Z,88.07
2023-04-23T22:52:33.804Z,87.80
2023-04-23T22:55:02.159Z,89.33
2023-04-23T22:57:30.753Z,89.93
2023-04-23T23:00:00.976Z,87.47
2023-04-23T23:02:29.232Z,86.37
2023-04-23T23:04:57.456Z,85.30
2023-04-23T23:07:25.620Z,84.37
2023-04-23T23:09:53.783Z,83.77
2023-04-23T23:12:22.470Z,85.80
2023-04-23T23:14:50.424Z,88.00
2023-04-23T23:17:19.912Z,89.30
2023-04-23T23:19:48.064Z,89.70
2023-04-23T23:22:16.343Z,89.03
2023-04-23T23:24:45.071Z,88.03
2023-04-23T23:27:13.218Z,90.23
2023-04-23T23:29:41.759Z,91.43
2023-04-23T23:32:10.176Z,89.30
2023-04-23T23:34:39.675Z,92.30
2023-04-23T23:37:07.824Z,91.00
2023-04-23T23:39:35.942Z,90.50
2023-04-23T23:42:04.092Z,92.87
2023-04-23T23:44:32.818Z,96.60
2023-04-23T23:47:01.195Z,95.00
2023-04-23T23:49:29.603Z,94.70
2023-04-23T23:51:59.299Z,93.37
2023-04-23T23:54:27.370Z,95.60
2023-04-23T23:56:56.966Z,98.97
2023-04-23T23:59:25.166Z,101.37
